Time;durP1;ratioP1;P1;durP2;ratioP2;P2;SDS_P1;SDS_P2;PMS_P1;PMS_P2;Temp;Humidity;BMP_temperature;BMP_pressure;BME280_temperature;BME280_humidity;BME280_pressure;Samples;Min_cycle;Max_cycle;Signal;HPM_P1;HPM_P2
2023/01/25 00:00:28;;;;;;;2.00;0.70;;;17.60;64.40;;;;;;5039428;28;20060;-72
2023/01/25 00:02:57;;;;;;;2.80;1.05;;;17.60;64.40;;;;;;5051899;28;20452;-72
2023/01/25 00:05:24;;;;;;;2.15;1.30;;;17.60;64.40;;;;;;5038376;28;20048;-72
2023/01/25 00:07:51;;;;;;;2.72;1.30;;;17.60;64.40;;;;;;5053862;28;20053;-72
2023/01/25 00:10:18;;;;;;;1.60;0.40;;;17.50;64.30;;;;;;5048947;28;20475;-72
2023/01/25 00:12:45;;;;;;;1.80;1.35;;;17.50;64.30;;;;;;5052635;28;20067;-71
2023/01/25 00:15:12;;;;;;;2.50;1.45;;;17.50;64.30;;;;;;5043279;28;20513;-72
2023/01/25 00:17:39;;;;;;;1.77;0.60;;;17.50;64.30;;;;;;5037065;28;20508;-72
2023/01/25 00:20:09;;;;;;;3.53;1.75;;;17.50;64.30;;;;;;5033698;28;20298;-72
2023/01/25 00:22:36;;;;;;;2.50;1.27;;;17.50;64.30;;;;;;5036827;28;20041;-72
2023/01/25 00:25:03;;;;;;;2.28;1.63;;;17.50;64.30;;;;;;5043176;28;20501;-72
2023/01/25 00:27:30;;;;;;;2.00;1.60;;;17.50;64.30;;;;;;5052267;28;20053;-71
2023/01/25 00:29:57;;;;;;;1.70;1.33;;;17.50;64.30;;;;;;5035626;28;20046;-72
2023/01/25 00:32:47;;;;;;;1.63;0.50;;;17.50;64.30;;;;;;5033783;28;20045;-72
2023/01/25 00:35:15;;;;;;;3.05;1.30;;;17.50;64.20;;;;;;5033367;28;20056;-72
2023/01/25 00:37:48;;;;;;;1.80;0.43;;;17.50;64.30;;;;;;5033866;28;20046;-72
2023/01/25 00:40:16;;;;;;;2.40;1.40;;;17.50;64.30;;;;;;5033512;28;20108;-72
2023/01/25 00:42:43;;;;;;;1.90;0.60;;;17.40;64.20;;;;;;5032221;28;20050;-72
2023/01/25 00:45:12;;;;;;;2.13;1.48;;;17.40;64.20;;;;;;5038407;28;20051;-72
2023/01/25 00:47:39;;;;;;;2.47;1.15;;;17.40;64.20;;;;;;5052074;28;20657;-72
2023/01/25 00:50:07;;;;;;;1.80;0.50;;;17.40;64.20;;;;;;5053080;28;20528;-72
2023/01/25 00:52:36;;;;;;;1.95;1.17;;;17.40;64.10;;;;;;5051861;28;20060;-72
2023/01/25 00:55:03;;;;;;;1.60;0.60;;;17.30;64.00;;;;;;5036340;28;20056;-72
2023/01/25 00:57:30;;;;;;;2.00;1.70;;;17.40;64.00;;;;;;5031533;28;20060;-71
2023/01/25 00:59:57;;;;;;;1.60;0.50;;;17.40;64.00;;;;;;5033274;28;20045;-72
2023/01/25 01:02:23;;;;;;;1.70;1.40;;;17.40;64.00;;;;;;5031685;28;20053;-72
2023/01/25 01:04:50;;;;;;;2.65;1.55;;;17.40;63.90;;;;;;5031618;28;20057;-72
2023/01/25 01:07:17;;;;;;;2.95;0.52;;;17.50;64.00;;;;;;5031555;28;20517;-71
2023/01/25 01:09:46;;;;;;;1.83;0.43;;;17.50;63.80;;;;;;5032710;28;20041;-72
2023/01/25 01:12:12;;;;;;;1.83;1.23;;;17.60;63.80;;;;;;5038037;28;20056;-72
2023/01/25 01:14:39;;;;;;;2.08;1.10;;;17.60;63.70;;;;;;5039284;28;20057;-72
2023/01/25 01:17:06;;;;;;;1.75;0.40;;;17.70;63.60;;;;;;5031026;28;20048;-71
2023/01/25 01:19:33;;;;;;;2.28;1.25;;;17.70;63.50;;;;;;5031689;28;20050;-72
2023/01/25 01:22:00;;;;;;;1.75;1.40;;;17.80;63.50;;;;;;5031809;28;20589;-72
2023/01/25 01:24:27;;;;;;;2.03;1.17;;;17.80;63.30;;;;;;5044371;28;20052;-72
2023/01/25 01:26:55;;;;;;;2.25;1.50;;;17.90;63.20;;;;;;5032653;28;20045;-72
2023/01/25 01:29:23;;;;;;;1.85;1.00;;;18.00;63.10;;;;;;5044253;28;20060;-72
2023/01/25 01:31:51;;;;;;;1.42;0.50;;;18.10;63.00;;;;;;5052097;28;20048;-72
2023/01/25 01:34:18;;;;;;;2.40;1.23;;;18.20;62.90;;;;;;5049384;28;20076;-72
2023/01/25 01:36:45;;;;;;;1.80;0.35;;;18.20;62.70;;;;;;5043325;28;20057;-72
2023/01/25 01:39:12;;;;;;;1.40;0.60;;;18.30;62.70;;;;;;5032477;28;20637;-72
2023/01/25 01:41:39;;;;;;;2.25;1.67;;;18.30;62.60;;;;;;5035573;28;20052;-72
2023/01/25 01:44:15;;;;;;;1.83;0.65;;;18.30;62.60;;;;;;5031863;28;20430;-72
2023/01/25 01:46:43;;;;;;;1.67;1.02;;;18.30;62.50;;;;;;5035479;28;20048;-72
2023/01/25 01:49:16;;;;;;;1.70;0.50;;;18.30;62.50;;;;;;5032058;28;20406;-71
2023/01/25 01:51:47;;;;;;;1.80;1.20;;;18.30;62.50;;;;;;5035201;28;20450;-72
2023/01/25 01:54:18;;;;;;;2.50;1.35;;;18.30;62.50;;;;;;5044550;28;20052;-71
2023/01/25 01:56:52;;;;;;;1.80;1.40;;;18.30;62.50;;;;;;5035542;28;20487;-71
2023/01/25 01:59:22;;;;;;;2.20;1.17;;;18.30;62.50;;;;;;5031770;28;20354;-72
2023/01/25 02:01:48;;;;;;;1.80;1.17;;;18.30;62.50;;;;;;5044792;28;20056;-71
2023/01/25 02:04:18;;;;;;;2.30;1.38;;;18.20;62.50;;;;;;5051349;28;20044;-71
2023/01/25 02:06:49;;;;;;;1.75;1.17;;;18.20;62.50;;;;;;5051622;28;20111;-72
2023/01/25 02:09:19;;;;;;;2.25;1.45;;;18.20;62.50;;;;;;5051277;28;20057;-71
2023/01/25 02:11:47;;;;;;;1.83;1.23;;;18.10;62.50;;;;;;5031400;28;20517;-71
2023/01/25 02:14:15;;;;;;;1.33;0.55;;;18.10;62.50;;;;;;5035472;28;20402;-72
2023/01/25 02:16:44;;;;;;;2.33;1.70;;;18.10;62.60;;;;;;5031431;28;20498;-72
2023/01/25 02:19:17;;;;;;;1.77;0.50;;;18.00;62.60;;;;;;5031986;28;20052;-72
2023/01/25 02:21:47;;;;;;;1.63;1.15;;;18.00;62.60;;;;;;5030217;28;20049;-72
2023/01/25 02:24:21;;;;;;;1.88;1.27;;;17.90;62.70;;;;;;5032079;28;20045;-71
2023/01/25 02:26:50;;;;;;;2.10;1.20;;;17.90;62.70;;;;;;5043308;28;20050;-72
2023/01/25 02:29:18;;;;;;;1.35;0.60;;;17.90;62.70;;;;;;5050732;28;20053;-72
2023/01/25 02:31:48;;;;;;;2.17;1.42;;;17.90;62.70;;;;;;5039469;28;20126;-72
2023/01/25 02:34:15;;;;;;;2.45;1.42;;;17.80;62.90;;;;;;5049764;28;20053;-72
2023/01/25 02:36:42;;;;;;;1.95;1.42;;;17.80;62.70;;;;;;5039957;28;20045;-72
2023/01/25 02:39:14;;;;;;;2.28;1.52;;;17.80;62.70;;;;;;5029957;28;20057;-71
2023/01/25 02:41:42;;;;;;;1.70;1.30;;;17.70;62.80;;;;;;5030222;28;20045;-72
2023/01/25 02:44:14;;;;;;;2.28;1.85;;;17.70;62.80;;;;;;5031589;28;20053;-72
2023/01/25 02:46:43;;;;;;;1.77;0.90;;;17.70;62.80;;;;;;5044999;28;20053;-72
2023/01/25 02:49:11;;;;;;;2.45;1.58;;;17.70;62.90;;;;;;5029850;28;20063;-72
2023/01/25 02:51:41;;;;;;;1.85;1.35;;;17.60;62.80;;;;;;5031057;28;20057;-71
2023/01/25 02:54:08;;;;;;;;;;;17.60;62.90;;;;;;5030261;28;20052;-72
2023/01/25 02:56:35;;;;;;;2.22;1.48;;;17.60;62.80;;;;;;5031702;28;19929;-72
2023/01/25 02:59:04;;;;;;;1.50;0.70;;;17.60;62.90;;;;;;5031172;28;20046;-72
2023/01/25 03:01:32;;;;;;;2.03;1.42;;;17.60;62.90;;;;;;5030898;28;20049;-72
2023/01/25 03:03:59;;;;;;;2.53;1.90;;;17.50;62.90;;;;;;5034883;28;20111;-72
2023/01/25 03:06:27;;;;;;;1.83;1.30;;;17.50;62.90;;;;;;5045552;28;20049;-71
2023/01/25 03:08:53;;;;;;;1.95;1.35;;;17.50;62.80;;;;;;5049866;28;20052;-71
2023/01/25 03:11:21;;;;;;;2.42;1.77;;;17.50;62.80;;;;;;5049861;28;20115;-71
2023/01/25 03:13:48;;;;;;;1.95;1.38;;;17.50;62.80;;;;;;5050044;28;20060;-72
2023/01/25 03:16:15;;;;;;;2.03;1.67;;;17.40;62.80;;;;;;5049986;28;20060;-72
2023/01/25 03:18:44;;;;;;;2.42;2.22;;;17.50;62.80;;;;;;5051028;28;20053;-72
2023/01/25 03:21:13;;;;;;;2.33;1.25;;;17.50;62.80;;;;;;5049736;28;20045;-72
2023/01/25 03:23:40;;;;;;;2.13;1.70;;;17.60;62.80;;;;;;5050440;28;20052;-72
2023/01/25 03:26:09;;;;;;;2.10;1.40;;;17.60;62.70;;;;;;5050659;28;20107;-72
2023/01/25 03:28:36;;;;;;;1.73;1.33;;;17.70;62.70;;;;;;5050897;28;20490;-71
2023/01/25 03:31:04;;;;;;;2.25;1.48;;;17.70;63.20;;;;;;5049598;28;20114;-71
2023/01/25 03:33:31;;;;;;;1.95;1.63;;;17.80;62.50;;;;;;5051087;28;20049;-72
2023/01/25 03:35:59;;;;;;;2.28;2.05;;;17.80;62.40;;;;;;5050840;28;20056;-72
2023/01/25 03:38:27;;;;;;;1.80;1.48;;;17.80;62.20;;;;;;5049528;28;20037;-71
2023/01/25 03:40:55;;;;;;;1.80;1.20;;;17.90;62.20;;;;;;5053722;28;20501;-72
2023/01/25 03:43:21;;;;;;;1.70;1.33;;;18.00;62.20;;;;;;5048535;28;20050;-72
2023/01/25 03:45:52;;;;;;;2.25;1.42;;;18.00;62.10;;;;;;5040888;28;20114;-72
2023/01/25 03:48:19;;;;;;;1.80;1.25;;;18.10;62.60;;;;;;5053059;28;20049;-72
2023/01/25 03:50:50;;;;;;;2.30;1.70;;;18.20;61.90;;;;;;5053321;28;20520;-72
2023/01/25 03:53:26;;;;;;;1.67;1.05;;;18.20;61.70;;;;;;5053300;28;20084;-72
2023/01/25 03:55:53;;;;;;;;;;;18.30;61.60;;;;;;5048730;28;20122;-72
2023/01/25 03:58:20;;;;;;;1.85;1.35;;;18.30;61.60;;;;;;5038181;28;20575;-72
2023/01/25 04:00:47;;;;;;;1.80;0.75;;;18.40;61.50;;;;;;5051283;28;20056;-72
2023/01/25 04:03:14;;;;;;;1.73;1.42;;;18.40;61.50;;;;;;5052760;28;20049;-72
2023/01/25 04:05:42;;;;;;;1.52;1.23;;;18.40;61.50;;;;;;5054102;28;20052;-72
2023/01/25 04:08:09;;;;;;;1.85;0.60;;;18.40;61.50;;;;;;5053845;28;20045;-72
2023/01/25 04:10:37;;;;;;;2.55;0.70;;;18.40;61.50;;;;;;5054326;28;20430;-72
2023/01/25 04:13:04;;;;;;;1.88;1.35;;;18.40;61.50;;;;;;5052969;28;20493;-72
2023/01/25 04:15:31;;;;;;;1.98;1.42;;;18.40;61.50;;;;;;5053448;28;20049;-72
2023/01/25 04:17:58;;;;;;;2.08;1.50;;;18.40;61.60;;;;;;5052799;28;20053;-72
2023/01/25 04:20:25;;;;;;;1.88;1.42;;;18.30;61.50;;;;;;5054105;28;20049;-72
2023/01/25 04:22:51;;;;;;;2.03;0.73;;;18.30;61.50;;;;;;5045206;28;20053;-72
2023/01/25 04:25:19;;;;;;;2.35;1.50;;;18.30;61.60;;;;;;5033577;28;20041;-72
2023/01/25 04:27:47;;;;;;;1.80;1.50;;;18.30;61.60;;;;;;5033853;28;20046;-72
2023/01/25 04:30:14;;;;;;;1.85;1.55;;;18.20;61.60;;;;;;5033634;28;20041;-72
2023/01/25 04:32:41;;;;;;;1.50;0.50;;;18.20;61.60;;;;;;5033990;28;20042;-71
2023/01/25 04:35:09;;;;;;;1.35;0.50;;;18.20;61.70;;;;;;5032180;28;20445;-72
2023/01/25 04:41:16;;;;;;;1.88;0.70;;;18.10;61.70;;;;;;5041487;28;20083;-72
2023/01/25 04:43:45;;;;;;;2.20;0.73;;;18.00;61.80;;;;;;5035782;28;20497;-72
2023/01/25 04:46:12;;;;;;;2.00;1.23;;;18.00;62.40;;;;;;5049024;28;20052;-72
2023/01/25 04:48:39;;;;;;;1.90;0.70;;;17.90;61.80;;;;;;5051178;28;20111;-72
2023/01/25 04:51:08;;;;;;;1.80;1.40;;;17.90;61.90;;;;;;5036113;28;20103;-72
2023/01/25 04:53:35;;;;;;;1.92;0.65;;;17.90;61.90;;;;;;5032134;28;20077;-72
2023/01/25 04:56:02;;;;;;;1.88;0.60;;;17.80;61.90;;;;;;5032182;28;20050;-72
2023/01/25 04:58:29;;;;;;;1.98;1.77;;;17.70;61.90;;;;;;5032062;28;20556;-72
2023/01/25 05:01:01;;;;;;;2.15;1.75;;;17.70;61.90;;;;;;5033031;28;20053;-72
2023/01/25 05:03:28;;;;;;;1.90;1.52;;;17.70;61.90;;;;;;5036159;28;20050;-72
2023/01/25 05:05:55;;;;;;;1.70;0.50;;;17.70;62.00;;;;;;5031619;28;20056;-72
2023/01/25 05:08:22;;;;;;;2.03;0.70;;;17.70;62.00;;;;;;5031672;28;20058;-72
2023/01/25 05:10:49;;;;;;;2.25;1.75;;;17.60;62.00;;;;;;5044483;28;20056;-72
2023/01/25 05:13:16;;;;;;;2.00;1.80;;;17.60;62.70;;;;;;5052646;28;20045;-72
2023/01/25 05:15:43;;;;;;;1.45;0.77;;;17.50;62.00;;;;;;5039904;28;20552;-72
2023/01/25 05:18:11;;;;;;;1.33;0.52;;;17.50;62.00;;;;;;5033130;28;20042;-72
2023/01/25 05:20:38;;;;;;;2.10;1.58;;;17.50;62.10;;;;;;5032455;28;20491;-71
2023/01/25 05:23:05;;;;;;;2.00;1.27;;;17.50;62.10;;;;;;5031641;28;20053;-72
2023/01/25 05:28:17;;;;;;;1.48;0.70;;;17.50;62.10;;;;;;5032787;28;20075;-72
2023/01/25 05:30:44;;;;;;;2.13;1.77;;;17.50;62.00;;;;;;5049400;28;20055;-72
2023/01/25 05:33:12;;;;;;;2.10;1.65;;;17.60;62.00;;;;;;5051960;28;20502;-72
2023/01/25 05:35:39;;;;;;;2.20;0.70;;;17.70;62.00;;;;;;5051583;28;20053;-72
2023/01/25 05:38:06;;;;;;;2.35;1.88;;;17.60;61.90;;;;;;5041068;28;20049;-72
2023/01/25 05:40:33;;;;;;;1.67;0.65;;;17.70;61.80;;;;;;5032270;28;20064;-72
2023/01/25 05:43:00;;;;;;;1.98;1.50;;;17.80;61.80;;;;;;5040506;28;20048;-72
2023/01/25 05:45:28;;;;;;;1.90;1.67;;;17.80;61.70;;;;;;5049156;28;20055;-71
2023/01/25 05:47:57;;;;;;;2.25;1.70;;;17.90;61.60;;;;;;5052264;28;20049;-72
2023/01/25 05:50:27;;;;;;;2.20;1.52;;;17.90;61.50;;;;;;5051888;28;20394;-72
2023/01/25 05:52:53;;;;;;;1.52;0.70;;;18.00;61.40;;;;;;5050953;28;20053;-72
2023/01/25 05:55:20;;;;;;;1.20;0.50;;;18.00;61.30;;;;;;5050740;28;20052;-72
2023/01/25 05:57:47;;;;;;;1.60;0.70;;;18.10;61.30;;;;;;5051482;28;20383;-72
2023/01/25 06:00:15;;;;;;;2.22;1.95;;;18.20;61.20;;;;;;5050057;28;20049;-72
2023/01/25 06:02:42;;;;;;;1.50;0.63;;;18.10;61.10;;;;;;5049530;28;20060;-72
2023/01/25 06:05:09;;;;;;;1.50;0.63;;;18.20;61.10;;;;;;5048620;28;20045;-72
2023/01/25 06:07:38;;;;;;;2.00;1.70;;;18.20;61.00;;;;;;5031714;28;20080;-72
2023/01/25 06:10:06;;;;;;;2.42;1.45;;;18.30;61.00;;;;;;5031870;28;20053;-72
2023/01/25 06:12:33;;;;;;;1.95;1.48;;;18.30;61.00;;;;;;5030852;28;20057;-72
2023/01/25 06:15:00;;;;;;;1.63;1.15;;;18.30;60.90;;;;;;5031731;28;20533;-72
2023/01/25 06:17:27;;;;;;;2.00;1.42;;;18.30;60.80;;;;;;5035349;28;20049;-72
2023/01/25 06:19:54;;;;;;;1.60;0.68;;;18.40;60.80;;;;;;5030526;28;20057;-72
2023/01/25 06:22:21;;;;;;;1.65;1.25;;;18.50;60.70;;;;;;5031942;28;20056;-72
2023/01/25 06:24:49;;;;;;;1.90;1.40;;;18.50;60.60;;;;;;5031707;28;20045;-72
2023/01/25 06:27:16;;;;;;;1.60;0.55;;;18.60;60.60;;;;;;5030340;28;20053;-72
2023/01/25 06:29:43;;;;;;;1.77;1.50;;;18.60;60.50;;;;;;5032494;28;20498;-71
2023/01/25 06:32:10;;;;;;;1.35;0.65;;;18.60;61.10;;;;;;5046882;28;20060;-72
2023/01/25 06:34:37;;;;;;;1.90;1.33;;;18.60;60.50;;;;;;5043508;28;20049;-71
2023/01/25 06:37:04;;;;;;;2.08;1.58;;;18.60;60.50;;;;;;5031257;28;20057;-72
2023/01/25 06:39:31;;;;;;;1.42;0.50;;;18.60;60.50;;;;;;5041339;28;20056;-72
2023/01/25 06:41:59;;;;;;;1.80;1.58;;;18.50;60.50;;;;;;5042981;28;20072;-72
2023/01/25 06:44:26;;;;;;;1.75;1.05;;;18.50;60.50;;;;;;5035677;28;20422;-72
2023/01/25 06:46:54;;;;;;;1.70;0.70;;;18.50;60.50;;;;;;5040685;28;20088;-72
2023/01/25 06:49:21;;;;;;;1.70;0.82;;;18.50;60.60;;;;;;5030103;28;20060;-72
2023/01/25 06:51:47;;;;;;;2.17;1.50;;;18.50;60.60;;;;;;5031818;28;20045;-71
2023/01/25 06:54:14;;;;;;;2.35;2.03;;;18.40;60.70;;;;;;5030321;28;20060;-72
2023/01/25 06:56:41;;;;;;;1.70;0.65;;;18.40;60.70;;;;;;5031393;28;20189;-72
2023/01/25 06:59:09;;;;;;;2.20;1.80;;;18.40;60.70;;;;;;5032622;28;20045;-72
2023/01/25 07:01:36;;;;;;;2.10;0.93;;;18.30;60.70;;;;;;5038030;28;20048;-72
2023/01/25 07:04:04;;;;;;;2.05;0.95;;;18.30;60.70;;;;;;5049718;28;20049;-72
2023/01/25 07:06:33;;;;;;;2.33;0.80;;;18.20;60.80;;;;;;5040875;28;20100;-72
2023/01/25 07:09:04;;;;;;;;;;;18.20;60.80;;;;;;5045276;28;20100;-71
2023/01/25 07:11:31;;;;;;;1.60;0.63;;;18.20;60.70;;;;;;5030881;28;19928;-72
2023/01/25 07:13:59;;;;;;;2.67;1.75;;;18.10;60.90;;;;;;5029961;28;20057;-72
2023/01/25 07:16:27;;;;;;;2.35;1.75;;;18.10;60.90;;;;;;5036156;28;20045;-72
2023/01/25 07:18:55;;;;;;;2.13;1.90;;;18.00;60.90;;;;;;5034692;28;20075;-72
2023/01/25 07:21:23;;;;;;;2.20;1.73;;;18.00;61.60;;;;;;5054641;28;20107;-72
2023/01/25 07:23:50;;;;;;;2.05;1.83;;;17.90;61.00;;;;;;5053359;28;20049;-72
2023/01/25 07:26:19;;;;;;;2.25;2.05;;;17.90;61.00;;;;;;5037050;28;20061;-72
2023/01/25 07:28:47;;;;;;;1.92;0.85;;;17.80;61.10;;;;;;5035639;28;20402;-72
2023/01/25 07:31:14;;;;;;;2.40;1.75;;;17.80;61.10;;;;;;5034543;28;20049;-72
2023/01/25 07:33:42;;;;;;;2.35;2.05;;;17.80;61.10;;;;;;5033529;28;20111;-72
2023/01/25 07:36:11;;;;;;;2.38;2.15;;;17.70;61.10;;;;;;5034619;28;20115;-72
2023/01/25 07:38:38;;;;;;;2.60;2.15;;;17.70;61.10;;;;;;5033642;28;20057;-72
2023/01/25 07:41:05;;;;;;;2.47;2.25;;;17.60;61.10;;;;;;5047525;28;20052;-72
2023/01/25 07:43:32;;;;;;;2.38;2.15;;;17.70;61.20;;;;;;5054353;28;20041;-72
2023/01/25 07:46:03;;;;;;;2.30;1.23;;;17.60;61.10;;;;;;5050364;28;20126;-72
2023/01/25 07:48:31;;;;;;;2.63;1.02;;;17.60;61.20;;;;;;5033514;28;20057;-72
2023/01/25 07:53:44;;;;;;;2.03;1.10;;;17.60;61.30;;;;;;5047275;28;20381;-72
2023/01/25 07:56:12;;;;;;;2.45;2.15;;;17.60;61.20;;;;;;5053169;28;20044;-72
2023/01/25 07:58:40;;;;;;;2.55;2.33;;;17.60;61.20;;;;;;5036003;28;20057;-72
2023/01/25 08:01:07;;;;;;;2.08;0.93;;;17.60;61.20;;;;;;5037154;28;20092;-72
2023/01/25 08:03:34;;;;;;;1.80;0.90;;;17.60;61.20;;;;;;5052775;28;20049;-72
2023/01/25 08:06:05;;;;;;;2.00;0.90;;;17.60;61.10;;;;;;5048802;28;20044;-72
2023/01/25 08:08:33;;;;;;;2.83;2.53;;;17.70;61.10;;;;;;5034886;28;20466;-72
2023/01/25 08:11:01;;;;;;;2.20;1.85;;;17.70;61.00;;;;;;5049758;28;20093;-71
2023/01/25 08:13:28;;;;;;;1.98;1.02;;;17.70;60.90;;;;;;5034125;28;20091;-72
2023/01/25 08:15:55;;;;;;;2.00;1.08;;;17.80;60.80;;;;;;5037525;28;20046;-72
2023/01/25 08:18:22;;;;;;;2.03;1.10;;;17.90;60.80;;;;;;5034400;28;20057;-72
2023/01/25 08:20:49;;;;;;;2.47;1.17;;;17.90;60.80;;;;;;5033613;28;20111;-72
2023/01/25 08:23:19;;;;;;;2.30;1.58;;;17.90;60.60;;;;;;5052607;28;20053;-72
2023/01/25 08:25:46;;;;;;;1.83;0.80;;;18.00;60.60;;;;;;5050882;28;20097;-72
2023/01/25 08:28:13;;;;;;;1.70;0.90;;;18.00;60.50;;;;;;5053892;28;20383;-72
2023/01/25 08:30:40;;;;;;;2.17;1.92;;;18.10;60.40;;;;;;5051125;28;20040;-72
2023/01/25 08:33:07;;;;;;;2.78;2.03;;;18.20;60.40;;;;;;5049156;28;20044;-72
2023/01/25 08:35:34;;;;;;;2.35;2.15;;;18.20;60.90;;;;;;5042705;28;20045;-72
2023/01/25 08:38:01;;;;;;;2.20;1.02;;;18.20;60.80;;;;;;5032382;28;20061;-72
2023/01/25 08:40:30;;;;;;;1.80;1.25;;;18.20;60.20;;;;;;5045592;28;20453;-72
2023/01/25 08:42:57;;;;;;;2.22;1.75;;;18.20;60.70;;;;;;5035059;28;20061;-72
2023/01/25 08:45:24;;;;;;;2.35;1.92;;;18.30;60.10;;;;;;5033253;28;20045;-72
2023/01/25 08:47:50;;;;;;;2.30;1.83;;;18.30;60.00;;;;;;5052449;28;20052;-72
2023/01/25 08:50:17;;;;;;;2.38;1.85;;;18.40;60.00;;;;;;5052993;28;20579;-72
2023/01/25 08:52:44;;;;;;;2.47;2.03;;;18.40;60.00;;;;;;5050170;28;20052;-71
2023/01/25 08:55:11;;;;;;;1.70;0.90;;;18.50;60.00;;;;;;5053679;28;20394;-72
2023/01/25 08:57:39;;;;;;;1.92;0.73;;;18.50;59.90;;;;;;5053357;28;20048;-72
2023/01/25 09:00:08;;;;;;;2.40;2.08;;;18.60;59.80;;;;;;5051698;28;20040;-72
2023/01/25 09:02:35;;;;;;;2.20;1.77;;;18.60;59.60;;;;;;5042247;28;20144;-72
2023/01/25 09:05:02;;;;;;;1.70;0.85;;;18.70;59.60;;;;;;5033331;28;20049;-72
2023/01/25 09:07:31;;;;;;;2.60;1.83;;;18.70;59.60;;;;;;5036229;28;20045;-71
2023/01/25 09:09:58;;;;;;;2.22;1.92;;;18.70;59.60;;;;;;5052912;28;20056;-72
2023/01/25 09:12:25;;;;;;;2.38;1.73;;;18.60;59.50;;;;;;5051544;28;20128;-72
2023/01/25 09:14:53;;;;;;;1.95;1.02;;;18.60;59.50;;;;;;5041015;28;20049;-72
2023/01/25 09:17:20;;;;;;;2.67;2.33;;;18.60;59.50;;;;;;5045512;28;20693;-72
2023/01/25 09:19:47;;;;;;;2.60;1.80;;;18.60;60.20;;;;;;5031436;28;20060;-72
2023/01/25 09:22:14;;;;;;;2.55;2.35;;;18.60;59.60;;;;;;5031822;28;20053;-72
2023/01/25 09:24:41;;;;;;;2.70;2.33;;;18.50;59.70;;;;;;5031392;28;20053;-72
2023/01/25 09:27:08;;;;;;;1.98;1.75;;;18.50;59.70;;;;;;5031642;28;20049;-72
2023/01/25 09:29:35;;;;;;;1.92;1.55;;;18.50;59.80;;;;;;5032470;28;20053;-72
2023/01/25 09:32:04;;;;;;;2.28;2.03;;;18.50;59.80;;;;;;5035769;28;20487;-72
2023/01/25 09:34:31;;;;;;;2.88;2.13;;;18.40;59.80;;;;;;5051368;28;20061;-72
2023/01/25 09:36:58;;;;;;;3.28;2.05;;;18.40;59.90;;;;;;5040871;28;20057;-72
2023/01/25 09:39:24;;;;;;;2.15;1.80;;;18.30;59.90;;;;;;5031166;28;20057;-72
2023/01/25 09:42:27;;;;;;;2.15;1.13;;;18.30;59.90;;;;;;5037653;28;20474;-72
2023/01/25 09:45:11;;;;;;;2.45;1.98;;;18.20;59.80;;;;;;5031390;28;20823;-71
2023/01/25 09:47:46;;;;;;;2.17;1.98;;;18.20;59.90;;;;;;5042348;28;20048;-71
2023/01/25 09:50:33;;;;;;;2.10;1.80;;;18.10;60.00;;;;;;5044972;28;20049;-71
2023/01/25 09:53:24;;;;;;;2.05;1.15;;;18.10;60.00;;;;;;5052420;28;20064;-72
2023/01/25 09:55:52;;;;;;;2.13;1.92;;;18.00;60.00;;;;;;5051953;28;20497;-72
2023/01/25 09:58:24;;;;;;;2.30;1.23;;;18.00;60.20;;;;;;5051971;28;20528;-72
2023/01/25 10:00:57;;;;;;;2.70;2.35;;;18.00;60.20;;;;;;5036565;28;20057;-72
2023/01/25 10:03:31;;;;;;;2.30;0.82;;;17.90;60.30;;;;;;5041274;28;20049;-72
2023/01/25 10:06:00;;;;;;;2.45;1.98;;;17.90;60.30;;;;;;5031978;28;20091;-72
2023/01/25 10:08:32;;;;;;;2.35;1.20;;;17.80;60.30;;;;;;5031709;28;20046;-72
2023/01/25 10:11:06;;;;;;;3.08;2.78;;;17.80;60.30;;;;;;5030158;28;20491;-72
2023/01/25 10:13:33;;;;;;;1.83;1.08;;;17.70;60.30;;;;;;5030559;28;20068;-72
2023/01/25 10:16:04;;;;;;;2.65;2.15;;;17.70;60.30;;;;;;5044004;28;20049;-72
2023/01/25 10:18:38;;;;;;;2.45;1.58;;;17.70;60.50;;;;;;5051815;28;20456;-72
2023/01/25 10:21:12;;;;;;;2.53;1.42;;;17.60;60.30;;;;;;5049964;28;20053;-72
2023/01/25 10:24:00;;;;;;;1.95;1.13;;;17.60;60.30;;;;;;5051438;28;20053;-72
2023/01/25 10:26:29;;;;;;;2.70;2.22;;;17.60;60.80;;;;;;5033689;28;20049;-72
2023/01/25 10:29:02;;;;;;;2.80;2.35;;;17.60;60.40;;;;;;5031513;28;20502;-72
2023/01/25 10:31:35;;;;;;;2.25;1.77;;;17.60;60.30;;;;;;5029992;28;20049;-71
2023/01/25 10:34:14;;;;;;;2.10;1.30;;;17.60;60.40;;;;;;5030346;28;20057;-72
2023/01/25 10:36:43;;;;;;;2.85;2.22;;;17.60;60.30;;;;;;5030295;28;20053;-72
2023/01/25 10:39:10;;;;;;;2.67;2.47;;;17.70;60.30;;;;;;5031019;28;20057;-72
2023/01/25 10:41:40;;;;;;;2.88;2.67;;;17.70;60.20;;;;;;5049679;28;20502;-72
2023/01/25 10:44:24;;;;;;;2.78;2.17;;;17.70;60.20;;;;;;5049277;28;20520;-72
2023/01/25 10:47:00;;;;;;;1.98;1.08;;;17.80;60.10;;;;;;5034677;28;20049;-71
2023/01/25 10:49:37;;;;;;;2.30;1.92;;;17.80;60.00;;;;;;5048061;28;20426;-71
2023/01/25 10:52:16;;;;;;;2.35;2.08;;;17.90;60.00;;;;;;5035737;28;20068;-72
2023/01/25 10:54:43;;;;;;;2.22;1.02;;;17.90;59.90;;;;;;5037516;28;20050;-71
2023/01/25 10:57:17;;;;;;;2.22;1.33;;;18.00;59.80;;;;;;5053856;28;20048;-72
2023/01/25 10:59:46;;;;;;;2.40;2.05;;;18.00;59.80;;;;;;5045417;28;20060;-72
2023/01/25 11:02:40;;;;;;;2.75;2.15;;;18.00;59.70;;;;;;5033901;28;20049;-71
2023/01/25 11:05:28;;;;;;;2.08;1.00;;;18.00;59.50;;;;;;5035588;28;20095;-72
2023/01/25 11:07:55;;;;;;;2.03;0.93;;;18.00;59.40;;;;;;5044663;28;20062;-72
2023/01/25 11:10:29;;;;;;;2.00;1.10;;;18.10;59.50;;;;;;5045220;28;20061;-72
2023/01/25 11:13:22;;;;;;;2.33;1.92;;;18.10;59.40;;;;;;5036291;28;20042;-71
2023/01/25 11:15:51;;;;;;;2.30;1.23;;;18.20;59.30;;;;;;5035157;28;20413;-71
2023/01/25 11:18:21;;;;;;;2.13;1.35;;;18.30;59.30;;;;;;5033896;28;20471;-72
2023/01/25 11:21:04;;;;;;;1.85;0.85;;;18.30;59.20;;;;;;5045756;28;20056;-72
2023/01/25 11:23:32;;;;;;;2.40;1.95;;;18.40;59.20;;;;;;5042293;28;20060;-72
2023/01/25 11:26:12;;;;;;;2.10;1.20;;;18.40;59.00;;;;;;5035002;28;20057;-71
2023/01/25 11:28:39;;;;;;;2.47;2.17;;;18.50;58.90;;;;;;5034887;28;20049;-72
2023/01/25 11:31:11;;;;;;;1.77;0.77;;;18.50;58.80;;;;;;5034662;28;20041;-71
2023/01/25 11:33:38;;;;;;;2.38;2.10;;;18.60;58.80;;;;;;5044621;28;20057;-71
2023/01/25 11:36:25;;;;;;;2.10;1.10;;;18.60;58.60;;;;;;5053595;28;20068;-71
2023/01/25 11:39:23;;;;;;;3.35;2.47;;;18.70;58.60;;;;;;5053461;28;20049;-72
2023/01/25 11:42:02;;;;;;;2.30;2.03;;;18.70;58.50;;;;;;5033342;28;20060;-72
2023/01/25 11:44:56;;;;;;;2.45;1.20;;;18.70;58.50;;;;;;5036193;28;20064;-72
2023/01/25 11:47:36;;;;;;;2.63;2.00;;;18.70;58.50;;;;;;5017102;28;20054;-72
2023/01/25 11:50:11;;;;;;;2.15;0.93;;;18.70;58.50;;;;;;5039998;28;20049;-72
2023/01/25 11:52:54;;;;;;;1.95;0.80;;;18.70;58.60;;;;;;5051333;28;20061;-71
2023/01/25 11:55:26;;;;;;;2.67;2.40;;;18.70;58.60;;;;;;5054517;28;20449;-72
2023/01/25 11:58:11;;;;;;;2.50;2.30;;;18.70;58.60;;;;;;5054326;28;20045;-72
2023/01/25 12:01:03;;;;;;;2.17;1.73;;;18.60;58.70;;;;;;5052972;28;20049;-72
2023/01/25 12:04:09;;;;;;;2.20;1.20;;;18.60;58.70;;;;;;5032838;28;20061;-72
2023/01/25 12:06:45;;;;;;;2.55;2.00;;;18.50;58.70;;;;;;5018717;28;20060;-72
2023/01/25 12:09:25;;;;;;;2.47;2.15;;;18.50;58.80;;;;;;5033016;28;20050;-72
2023/01/25 12:12:09;;;;;;;2.33;2.03;;;18.40;58.80;;;;;;5040972;28;20053;-71
2023/01/25 12:15:01;;;;;;;2.47;2.13;;;18.40;58.90;;;;;;5033949;28;20049;-72
2023/01/25 12:17:44;;;;;;;1.95;1.00;;;18.30;58.90;;;;;;5049370;28;20068;-72
2023/01/25 12:20:31;;;;;;;2.33;1.15;;;18.30;59.00;;;;;;5052504;28;20052;-72
2023/01/25 12:23:27;;;;;;;2.50;2.20;;;18.30;59.00;;;;;;5032765;28;20058;-72
2023/01/25 12:26:08;;;;;;;2.47;1.98;;;18.20;59.00;;;;;;5032526;28;20065;-72
2023/01/25 12:28:42;;;;;;;2.75;2.20;;;18.20;59.10;;;;;;5032597;28;20055;-72
2023/01/25 12:31:16;;;;;;;2.80;2.38;;;18.10;59.10;;;;;;5034705;28;20053;-72
2023/01/25 12:33:46;;;;;;;2.13;1.92;;;18.10;59.20;;;;;;5033724;28;20121;-72
2023/01/25 12:36:17;;;;;;;2.20;1.10;;;18.00;59.40;;;;;;5032441;28;20490;-72
2023/01/25 12:38:50;;;;;;;2.13;1.00;;;18.00;59.40;;;;;;5032300;28;20129;-72
2023/01/25 12:41:29;;;;;;;1.98;0.90;;;18.00;59.50;;;;;;5033453;28;20045;-71
2023/01/25 12:44:03;;;;;;;2.22;1.10;;;17.90;59.60;;;;;;5035058;28;20060;-72
2023/01/25 12:46:34;;;;;;;2.45;2.03;;;17.90;59.70;;;;;;5049634;28;20139;-72
2023/01/25 12:49:08;;;;;;;2.42;1.30;;;17.80;59.60;;;;;;5052260;28;20398;-72
2023/01/25 12:51:39;;;;;;;2.38;1.63;;;17.80;59.70;;;;;;5052569;28;20413;-72
2023/01/25 12:54:16;;;;;;;2.72;2.53;;;17.80;59.70;;;;;;5051889;28;20048;-72
2023/01/25 12:56:53;;;;;;;2.63;1.33;;;17.70;59.70;;;;;;5032476;28;20612;-72
2023/01/25 12:59:29;;;;;;;3.08;2.60;;;17.70;59.70;;;;;;5033459;28;20049;-72
2023/01/25 13:02:03;;;;;;;2.38;1.15;;;17.60;59.70;;;;;;5037875;28;20052;-72
2023/01/25 13:04:49;;;;;;;2.85;2.05;;;17.70;59.80;;;;;;5047618;28;20041;-72
2023/01/25 13:07:20;;;;;;;2.95;2.65;;;17.60;60.30;;;;;;5033337;28;20042;-72
2023/01/25 13:09:57;;;;;;;2.22;1.20;;;17.60;59.70;;;;;;5031514;28;20045;-72
2023/01/25 13:12:26;;;;;;;2.20;1.38;;;17.60;59.70;;;;;;5030485;28;20418;-71